• Join FlightAware (Why Join?)
  • Login
  • US Flag 
03:07PM EDT


 

Airport Tracker/Info


-or-


 

Live Flight TrackerFlight Track Log ✈ CTL22 ✈ 15-Apr-2013 ✈ KAZO - KBKL

Flight Track Log - Related Links

Times and Time Zones

All times are in EDT time to prevent confusion due to time zone crossing. See the CTL22 flight status page for this flight to view local times or setup timezone preferences in your user account.

Time Position Orientation Groundspeed Altitude Reporting Facility
EDT Latitude Longitude Course Direction KTS MPH feet Rate Location/Type
08:08PM 42.1725 -85.4156 116° Southeast 134 154 4,100  Level Chicago Center
08:09PM 42.1544 -85.3608 114° Southeast 151 174 4,800 720 Climbing Chicago Center
08:10PM 42.1325 -85.3094 120° Southeast 157 181 5,600 780 Climbing Chicago Center
08:11PM 42.1705 -85.1724 103° East  Level Estimated
08:11PM 42.1161 -85.2578 113° Southeast 152 175 6,500  Level Chicago Center
08:12PM 42.1598 -85.1093 103° East  Level Estimated
08:12PM 42.1017 -85.2078 111° Southeast 145 167 7,000  Level Chicago Center
08:13PM 42.0844 -85.1522 113° Southeast 155 178 7,100  Climbing Chicago Center
08:14PM 42.0564 -85.0814 118° Southeast 173 199 7,100  Level Chicago Center
08:15PM 42.0350 -85.0222 116° Southeast 176 203 7,100  Level Chicago Center
08:16PM 42.0122 -84.9628 117° Southeast 178 205 7,100 -60 Level Chicago Center
08:17PM 41.9867 -84.9067 121° Southeast 175 201 7,000 -60 Descending Chicago Center
08:18PM 41.9647 -84.8483 117° Southeast 175 201 7,000  Level Chicago Center
08:19PM 41.9408 -84.7942 121° Southeast 171 197 7,000  Level Chicago Center
08:20PM 41.9189 -84.7367 117° Southeast 172 198 7,100  Climbing Chicago Center
08:21PM 41.8922 -84.6692 118° Southeast 170 196 7,100 -60 Level Chicago Center
08:22PM 41.8722 -84.6097 114° Southeast 173 199 7,000  Descending Chicago Center
08:23PM 41.8553 -84.5472 110° East 177 204 7,100  Climbing Chicago Center
08:24PM 41.8367 -84.4869 112° Southeast 176 203 7,100  Level Chicago Center
08:25PM 41.8178 -84.4256 112° Southeast 177 204 7,100  Level Chicago Center
08:26PM 41.7975 -84.3650 114° Southeast 177 204 7,100 -60 Level Chicago Center
08:27PM 41.7769 -84.3028 114° Southeast 180 207 7,000  Descending Chicago Center
08:28PM 41.7547 -84.2264 111° Southeast 182 209 7,100  Climbing Chicago Center
08:29PM 41.7375 -84.1625 110° East 183 211 7,000 -120 Descending Chicago Center